< Typhoon 196408 1964 Season Typhoon 196410 >
Typhoon 196409 (FLOSSIE)
General InformationTrack Information on Google Maps || Disaster Info.ResourceGoogle EarthGE AnimationAtom FeedGeoJSON
Detalied Best Track (Time Zone = UTC)
Year Month Day Hour Lat. Long. Pressure (hPa) Wind (kt) Class Image Chart
1964 7 24 00 18.0 128.2 1004 0 2 -- Chart
1964 7 24 06 18.7 128.8 1004 0 2 -- Chart
1964 7 24 12 19.6 129.1 1004 0 2 -- Chart
1964 7 24 18 20.2 130.1 1004 0 2 -- Chart
1964 7 25 00 21.1 130.1 1004 0 2 -- Chart
1964 7 25 06 22.3 129.7 1004 0 2 -- Chart
1964 7 25 12 23.3 129.5 1004 0 2 -- Chart
1964 7 25 18 24.2 128.8 1004 0 2 -- Chart
1964 7 26 00 25.3 127.9 998 0 9 -- Chart
1964 7 26 06 25.5 127.2 992 0 9 -- Chart
1964 7 26 12 26.1 126.3 988 0 9 -- Chart
1964 7 26 18 26.4 125.4 982 0 9 -- Chart
1964 7 27 00 27.0 124.7 982 0 9 -- Chart
1964 7 27 06 27.6 124.0 980 0 9 -- Chart
1964 7 27 12 28.4 123.6 980 0 9 -- Chart
1964 7 27 18 29.5 123.2 980 0 9 -- Chart
1964 7 28 00 30.6 122.9 980 0 9 -- Chart
1964 7 28 06 32.2 122.6 980 0 9 -- Chart
1964 7 28 12 32.7 122.5 980 0 9 -- Chart
1964 7 28 18 33.9 122.8 980 0 9 -- Chart
1964 7 29 00 35.1 123.2 980 0 9 -- Chart
1964 7 29 06 37.2 123.7 985 0 9 -- Chart
1964 7 29 12 39.4 125.2 985 0 9 -- Chart
1964 7 29 18 41.7 127.1 992 0 2 -- Chart
1964 7 30 00 44.0 128.8 996 0 6 -- Chart
1964 7 30 06 45.2 129.5 996 0 6 -- Chart
1964 7 30 12 46.0 130.0 998 0 6 -- Chart
1964 7 30 18 46.5 130.6 998 0 6 -- Chart
1964 7 31 00 46.8 131.0 1002 0 6 -- Chart
1964 7 31 06 47.0 131.3 1002 0 6 -- Chart
1964 7 31 12 47.2 131.7 1004 0 6 -- Chart
1964 7 31 18 47.6 132.3 1004 0 6 -- Chart
1964 8 1 00 48.3 133.1 1004 0 6 -- Chart
1964 8 1 06 49.9 135.8 998 0 6 -- Chart
1964 8 1 12 51.1 139.0 998 0 6 -- Chart
1964 8 1 18 53.0 143.0 1000 0 6 -- Chart
Japan Meteorological Agency Best Track Data | Correction Date : 1989-06-01
< Typhoon 196408 1964 Season Typhoon 196410 >

Help